createdAt,value
2022-12-03T00:01:20.999Z,66.37
2022-12-03T00:03:48.587Z,66.47
2022-12-03T00:06:17.682Z,66.55
2022-12-03T00:08:45.180Z,66.66
2022-12-03T00:11:12.648Z,66.58
2022-12-03T00:13:40.154Z,66.55
2022-12-03T00:16:07.776Z,66.56
2022-12-03T00:18:35.262Z,66.62
2022-12-03T00:21:02.804Z,66.51
2022-12-03T00:23:30.270Z,66.67
2022-12-03T00:25:58.891Z,66.72
2022-12-03T00:28:26.344Z,66.60
2022-12-03T00:30:54.289Z,66.79
2022-12-03T00:33:22.636Z,66.77
2022-12-03T00:35:50.124Z,66.77
2022-12-03T00:38:17.907Z,66.80
2022-12-03T00:40:45.433Z,66.74
2022-12-03T00:43:12.991Z,66.73
2022-12-03T00:45:40.485Z,66.70
2022-12-03T00:48:07.982Z,66.69
2022-12-03T00:50:35.496Z,66.78
2022-12-03T00:53:03.117Z,66.79
2022-12-03T00:55:30.872Z,66.85
2022-12-03T00:57:58.414Z,66.96
2022-12-03T01:00:25.850Z,67.10
2022-12-03T01:02:54.089Z,67.07
2022-12-03T01:05:21.816Z,66.97
2022-12-03T01:07:49.395Z,66.89
2022-12-03T01:10:17.616Z,66.78
2022-12-03T01:12:45.607Z,66.68
2022-12-03T01:15:13.250Z,66.85
2022-12-03T01:17:40.749Z,66.92
2022-12-03T01:20:10.079Z,66.87
2022-12-03T01:22:37.789Z,66.95
2022-12-03T01:25:06.157Z,66.95
2022-12-03T01:27:33.684Z,66.85
2022-12-03T01:30:01.170Z,66.99
2022-12-03T01:32:28.667Z,66.87
2022-12-03T01:34:56.831Z,66.92
2022-12-03T01:37:26.866Z,67.02
2022-12-03T01:39:54.552Z,67.04
2022-12-03T01:42:26.225Z,67.06
2022-12-03T01:44:56.880Z,67.09
2022-12-03T01:47:29.857Z,67.00
2022-12-03T01:50:21.179Z,66.95
2022-12-03T01:52:49.223Z,66.96
2022-12-03T01:55:21.205Z,67.09
2022-12-03T01:57:52.657Z,66.94
2022-12-03T02:00:23.299Z,67.04
2022-12-03T02:02:55.038Z,66.97
2022-12-03T02:05:26.439Z,67.11
2022-12-03T02:07:54.309Z,67.04
2022-12-03T02:10:30.777Z,67.11
2022-12-03T02:13:03.135Z,67.12
2022-12-03T02:15:30.867Z,67.19
2022-12-03T02:17:58.481Z,67.12
2022-12-03T02:20:26.148Z,67.01
2022-12-03T02:22:56.617Z,67.17
2022-12-03T02:25:34.526Z,67.32
2022-12-03T02:28:03.887Z,67.27
2022-12-03T02:30:32.357Z,67.27
2022-12-03T02:33:00.975Z,67.26
2022-12-03T02:35:31.469Z,67.22
2022-12-03T02:38:05.935Z,67.25
2022-12-03T02:40:34.513Z,67.21
2022-12-03T02:43:04.084Z,67.20
2022-12-03T02:45:39.621Z,67.24
2022-12-03T02:48:16.063Z,67.22
2022-12-03T02:50:54.393Z,67.40
2022-12-03T02:53:30.824Z,67.36
2022-12-03T02:56:01.504Z,67.27
2022-12-03T02:58:32.762Z,67.33
2022-12-03T03:01:01.834Z,67.41
2022-12-03T03:03:32.393Z,67.44
2022-12-03T03:06:02.000Z,67.49
2022-12-03T03:08:30.843Z,67.42
2022-12-03T03:11:01.395Z,67.37
2022-12-03T03:13:31.108Z,67.39
2022-12-03T03:15:59.318Z,67.32
2022-12-03T03:18:26.972Z,67.36
2022-12-03T03:20:54.603Z,67.51
2022-12-03T03:23:23.966Z,67.54
2022-12-03T03:26:07.332Z,67.48
2022-12-03T03:28:38.997Z,67.42
2022-12-03T03:31:09.973Z,67.48
2022-12-03T03:33:43.513Z,67.31
2022-12-03T03:36:12.176Z,67.34
2022-12-03T03:38:41.269Z,67.35
2022-12-03T03:41:10.880Z,67.44
2022-12-03T03:43:40.399Z,67.32
2022-12-03T03:46:09.158Z,67.40
2022-12-03T03:48:37.169Z,67.42
2022-12-03T03:51:09.533Z,67.33
2022-12-03T03:53:41.291Z,67.26
2022-12-03T03:56:09.669Z,67.37
2022-12-03T03:58:38.168Z,67.66
2022-12-03T04:01:05.961Z,67.55
2022-12-03T04:03:34.514Z,67.59
2022-12-03T04:06:02.348Z,67.46
2022-12-03T04:08:30.710Z,67.49
2022-12-03T04:11:14.209Z,67.53
2022-12-03T04:13:41.666Z,67.53
2022-12-03T04:16:09.181Z,67.57
2022-12-03T04:18:42.803Z,67.55
2022-12-03T04:21:27.445Z,67.49
2022-12-03T04:23:55.231Z,67.51
2022-12-03T04:26:38.828Z,67.56
2022-12-03T04:29:06.400Z,67.61
2022-12-03T04:31:50.021Z,67.42
2022-12-03T04:34:33.684Z,67.43
2022-12-03T04:37:01.395Z,67.46
2022-12-03T04:39:29.043Z,67.46
2022-12-03T04:41:56.704Z,67.43
2022-12-03T04:44:40.194Z,67.55
2022-12-03T04:47:16.227Z,67.49
2022-12-03T04:49:46.535Z,67.44
2022-12-03T04:52:16.244Z,67.42
2022-12-03T04:54:43.926Z,67.45
2022-12-03T04:57:12.012Z,67.38
2022-12-03T04:59:40.019Z,67.47
2022-12-03T05:02:07.962Z,67.45
2022-12-03T05:04:35.877Z,67.50
2022-12-03T05:07:03.617Z,67.41
2022-12-03T05:09:31.276Z,67.39
2022-12-03T05:11:58.836Z,67.46
2022-12-03T05:14:26.287Z,67.47
2022-12-03T05:16:53.833Z,67.46
2022-12-03T05:19:41.459Z,67.54
2022-12-03T05:22:08.947Z,67.63
2022-12-03T05:24:36.430Z,67.58
2022-12-03T05:27:04.054Z,67.50
2022-12-03T05:29:31.524Z,67.57
2022-12-03T05:31:58.976Z,67.47
2022-12-03T05:34:26.512Z,67.61
2022-12-03T05:36:53.970Z,67.53
2022-12-03T05:39:21.966Z,67.52
2022-12-03T05:42:05.439Z,67.49
2022-12-03T05:44:32.922Z,67.37
2022-12-03T05:47:00.578Z,67.33
2022-12-03T05:49:28.083Z,67.51
2022-12-03T05:51:58.700Z,67.46
2022-12-03T05:54:26.500Z,67.55
2022-12-03T05:56:53.966Z,67.47
2022-12-03T05:59:21.486Z,67.56
2022-12-03T06:01:49.043Z,67.58
2022-12-03T06:04:16.512Z,67.52
2022-12-03T06:06:44.051Z,67.61
2022-12-03T06:09:11.614Z,67.67
2022-12-03T06:11:40.297Z,67.61
2022-12-03T06:14:08.362Z,67.68
2022-12-03T06:16:35.860Z,67.77
2022-12-03T06:19:03.368Z,67.82
2022-12-03T06:21:30.945Z,67.87
2022-12-03T06:23:58.498Z,67.92
2022-12-03T06:26:25.963Z,67.85
2022-12-03T06:28:53.415Z,67.83
2022-12-03T06:31:21.017Z,67.65
2022-12-03T06:33:48.578Z,67.73
2022-12-03T06:36:21.399Z,67.69
2022-12-03T06:38:50.493Z,67.81
2022-12-03T06:41:17.967Z,67.85
2022-12-03T06:43:45.663Z,67.87
2022-12-03T06:46:13.218Z,67.75
2022-12-03T06:48:40.750Z,67.74
2022-12-03T06:51:08.276Z,67.61
2022-12-03T06:53:35.795Z,67.59
2022-12-03T06:56:03.387Z,67.53
2022-12-03T06:58:30.917Z,67.65
2022-12-03T07:00:58.372Z,67.71
2022-12-03T07:03:25.915Z,67.68
2022-12-03T07:05:53.584Z,67.64
2022-12-03T07:08:21.127Z,67.77
2022-12-03T07:10:48.736Z,67.95
2022-12-03T07:13:16.384Z,67.81
2022-12-03T07:15:43.888Z,67.95
2022-12-03T07:18:11.423Z,67.95
2022-12-03T07:20:39.284Z,67.83
2022-12-03T07:23:06.772Z,67.84
2022-12-03T07:25:34.249Z,67.98
2022-12-03T07:28:01.759Z,67.93
2022-12-03T07:30:29.846Z,67.73
2022-12-03T07:32:57.394Z,67.85
2022-12-03T07:35:24.930Z,67.80
2022-12-03T07:37:52.449Z,67.83
2022-12-03T07:40:19.902Z,67.94
2022-12-03T07:42:47.396Z,67.87
2022-12-03T07:45:14.930Z,67.80
2022-12-03T07:47:42.385Z,67.79
2022-12-03T07:50:10.553Z,67.85
2022-12-03T07:52:38.046Z,67.84
2022-12-03T07:55:06.324Z,67.72
2022-12-03T07:57:33.802Z,67.80
2022-12-03T08:00:01.674Z,67.89
2022-12-03T08:02:29.314Z,67.95
2022-12-03T08:04:57.195Z,67.94
2022-12-03T08:07:24.842Z,67.99
2022-12-03T08:09:52.407Z,67.77
2022-12-03T08:12:44.497Z,67.89
2022-12-03T08:15:16.434Z,67.82
2022-12-03T08:17:45.934Z,67.91
2022-12-03T08:20:19.564Z,67.91
2022-12-03T08:22:50.025Z,68.00
2022-12-03T08:25:21.233Z,67.93
2022-12-03T08:27:49.150Z,67.95
2022-12-03T08:30:18.043Z,67.88
2022-12-03T08:32:45.830Z,67.99
2022-12-03T08:35:19.040Z,67.96
2022-12-03T08:37:46.537Z,67.79
2022-12-03T08:40:35.275Z,67.72
2022-12-03T08:43:11.904Z,67.80
2022-12-03T08:45:42.455Z,67.73
2022-12-03T08:48:24.337Z,67.84
2022-12-03T08:50:54.709Z,67.99
2022-12-03T08:53:30.227Z,67.87
2022-12-03T08:56:20.661Z,67.90
2022-12-03T08:59:00.568Z,67.86
2022-12-03T09:01:31.360Z,67.72
2022-12-03T09:04:16.940Z,67.76
2022-12-03T09:06:44.521Z,67.92
2022-12-03T09:09:11.993Z,67.70
2022-12-03T09:11:39.847Z,67.74
2022-12-03T09:14:07.329Z,67.79
2022-12-03T09:16:35.214Z,67.70
2022-12-03T09:19:02.814Z,67.74
2022-12-03T09:21:30.281Z,67.79
2022-12-03T09:23:57.788Z,67.76
2022-12-03T09:26:25.372Z,67.60
2022-12-03T09:28:53.152Z,67.62
2022-12-03T09:31:20.772Z,67.65
2022-12-03T09:33:48.807Z,67.80
2022-12-03T09:36:16.289Z,67.64
2022-12-03T09:38:47.613Z,67.64
2022-12-03T09:41:15.480Z,67.81
2022-12-03T09:44:03.135Z,67.80
2022-12-03T09:46:31.418Z,67.83
2022-12-03T09:49:00.995Z,67.68
2022-12-03T09:51:32.996Z,67.78
2022-12-03T09:54:03.691Z,67.86
2022-12-03T09:56:31.764Z,67.75
2022-12-03T09:58:59.669Z,67.84
2022-12-03T10:01:30.319Z,67.84
2022-12-03T10:03:58.678Z,67.83
2022-12-03T10:06:26.294Z,67.88
2022-12-03T10:08:55.452Z,67.91
2022-12-03T10:11:25.367Z,68.08
2022-12-03T10:13:56.003Z,68.11
2022-12-03T10:16:24.776Z,68.06
2022-12-03T10:18:55.922Z,68.07
2022-12-03T10:21:36.397Z,67.92
2022-12-03T10:24:25.922Z,67.86
2022-12-03T10:26:56.505Z,67.88
2022-12-03T10:29:33.279Z,67.87
2022-12-03T10:32:03.734Z,67.88
2022-12-03T10:34:35.808Z,67.81
2022-12-03T10:37:13.377Z,67.87
2022-12-03T10:40:09.293Z,67.98
2022-12-03T10:42:39.922Z,68.08
2022-12-03T10:45:22.557Z,68.12
2022-12-03T10:48:13.684Z,68.17
2022-12-03T10:50:51.082Z,68.11
2022-12-03T10:53:20.741Z,68.07
2022-12-03T10:55:51.295Z,68.01
2022-12-03T10:58:22.972Z,68.03
2022-12-03T11:00:52.635Z,67.97
2022-12-03T11:03:23.064Z,68.17
2022-12-03T11:05:51.956Z,68.22
2022-12-03T11:08:25.352Z,67.98
2022-12-03T11:11:00.069Z,68.17
2022-12-03T11:13:33.778Z,68.12
2022-12-03T11:16:03.050Z,68.18
2022-12-03T11:18:36.733Z,68.13
2022-12-03T11:21:07.887Z,68.24
2022-12-03T11:23:51.366Z,68.45
2022-12-03T11:26:38.787Z,68.21
2022-12-03T11:29:14.346Z,68.51
2022-12-03T11:31:45.192Z,68.60
2022-12-03T11:34:19.583Z,68.55
2022-12-03T11:37:09.220Z,68.64
2022-12-03T11:39:53.395Z,68.90
2022-12-03T11:42:25.323Z,68.88
2022-12-03T11:45:08.921Z,68.72
2022-12-03T11:47:42.975Z,68.62
2022-12-03T11:50:39.720Z,68.45
2022-12-03T11:53:07.765Z,68.01
2022-12-03T11:55:44.257Z,67.89
2022-12-03T11:58:29.345Z,67.56
2022-12-03T12:00:59.003Z,67.75
2022-12-03T12:03:33.313Z,67.66
2022-12-03T12:06:08.992Z,67.62
2022-12-03T12:08:55.608Z,67.55
2022-12-03T12:11:27.713Z,67.44
2022-12-03T12:13:58.220Z,67.27
2022-12-03T12:16:42.308Z,67.24
2022-12-03T12:19:43.030Z,67.27
2022-12-03T12:22:27.511Z,67.28
2022-12-03T12:24:59.220Z,67.31
2022-12-03T12:27:35.799Z,67.50
2022-12-03T12:30:21.670Z,67.49
2022-12-03T12:33:01.632Z,67.44
2022-12-03T12:35:32.926Z,67.32
2022-12-03T12:38:06.599Z,67.25
2022-12-03T12:40:36.540Z,67.46
2022-12-03T12:43:20.286Z,67.50
2022-12-03T12:45:53.753Z,67.36
2022-12-03T12:48:31.930Z,67.49
2022-12-03T12:50:59.833Z,67.41
2022-12-03T12:53:32.685Z,67.41
2022-12-03T12:56:22.452Z,67.44
2022-12-03T12:58:50.409Z,67.53
2022-12-03T13:01:27.526Z,67.69
2022-12-03T13:03:55.568Z,67.63
2022-12-03T13:06:29.862Z,67.57
2022-12-03T13:09:00.984Z,67.60
2022-12-03T13:11:47.388Z,67.59
2022-12-03T13:14:16.578Z,67.63
2022-12-03T13:16:45.031Z,67.78
2022-12-03T13:19:31.134Z,67.78
2022-12-03T13:22:01.598Z,67.71
2022-12-03T13:24:36.918Z,67.59
2022-12-03T13:27:20.393Z,67.70
2022-12-03T13:29:55.324Z,67.58
2022-12-03T13:32:22.897Z,67.60
2022-12-03T13:34:50.571Z,67.47
2022-12-03T13:37:28.122Z,67.37
2022-12-03T13:40:05.374Z,67.46
2022-12-03T13:42:39.040Z,67.47
2022-12-03T13:45:24.776Z,67.70
2022-12-03T13:47:58.749Z,67.64
2022-12-03T13:50:26.164Z,67.70
2022-12-03T13:52:54.517Z,67.71
2022-12-03T13:55:29.739Z,67.63
2022-12-03T13:57:57.692Z,67.65
2022-12-03T14:00:25.156Z,67.65
2022-12-03T14:02:52.715Z,67.79
2022-12-03T14:05:21.124Z,67.78
2022-12-03T14:07:48.840Z,67.84
2022-12-03T14:10:16.883Z,67.80
2022-12-03T14:12:44.335Z,67.96
2022-12-03T14:15:11.823Z,67.85
2022-12-03T14:17:39.336Z,67.83
2022-12-03T14:20:08.199Z,67.92
2022-12-03T14:22:38.059Z,67.92
2022-12-03T14:25:06.964Z,67.95
2022-12-03T14:27:34.848Z,67.93
2022-12-03T14:30:03.588Z,67.93
2022-12-03T14:32:31.501Z,67.88
2022-12-03T14:34:58.994Z,67.96
2022-12-03T14:37:26.457Z,67.90
2022-12-03T14:39:54.514Z,67.99
2022-12-03T14:42:22.279Z,67.93
2022-12-03T14:44:51.742Z,67.92
2022-12-03T14:47:22.634Z,67.93
2022-12-03T14:49:51.144Z,68.00
2022-12-03T14:52:19.328Z,68.03
2022-12-03T14:54:46.818Z,68.09
2022-12-03T14:57:15.325Z,68.10
2022-12-03T14:59:44.140Z,68.21
2022-12-03T15:02:12.287Z,68.15
2022-12-03T15:04:41.420Z,68.20
2022-12-03T15:07:09.464Z,68.24
2022-12-03T15:09:37.026Z,68.18
2022-12-03T15:12:04.847Z,68.14
2022-12-03T15:14:32.343Z,68.08
2022-12-03T15:16:59.896Z,68.04
2022-12-03T15:19:27.469Z,68.10
2022-12-03T15:21:54.916Z,68.08
2022-12-03T15:24:22.451Z,68.03
2022-12-03T15:26:52.120Z,68.11
2022-12-03T15:29:20.524Z,68.15
2022-12-03T15:31:48.125Z,68.29
2022-12-03T15:34:20.604Z,68.33
2022-12-03T15:36:51.148Z,68.34
2022-12-03T15:39:19.254Z,68.28
2022-12-03T15:41:47.063Z,68.28
2022-12-03T15:44:14.547Z,68.25
2022-12-03T15:46:42.117Z,68.24
2022-12-03T15:49:09.779Z,68.29
2022-12-03T15:51:37.251Z,68.31
2022-12-03T15:54:05.350Z,68.34
2022-12-03T15:56:35.598Z,68.32
2022-12-03T15:59:03.874Z,68.45
2022-12-03T16:01:31.570Z,68.44
2022-12-03T16:03:59.206Z,68.49
2022-12-03T16:06:26.682Z,68.58
2022-12-03T16:08:54.226Z,68.46
2022-12-03T16:11:21.837Z,68.41
2022-12-03T16:13:49.317Z,68.47
2022-12-03T16:16:16.883Z,68.51
2022-12-03T16:18:44.455Z,68.64
2022-12-03T16:21:11.934Z,68.62
2022-12-03T16:23:39.449Z,68.61
2022-12-03T16:26:07.179Z,68.58
2022-12-03T16:28:34.633Z,68.45
2022-12-03T16:31:02.191Z,68.64
2022-12-03T16:33:29.771Z,68.72
2022-12-03T16:35:57.335Z,68.72
2022-12-03T16:38:24.842Z,68.73
2022-12-03T16:40:52.429Z,68.75
2022-12-03T16:43:19.990Z,68.79
2022-12-03T16:46:03.498Z,68.75
2022-12-03T16:48:31.144Z,68.89
2022-12-03T16:50:58.684Z,68.75
2022-12-03T16:53:26.228Z,68.79
2022-12-03T16:55:53.688Z,68.79
2022-12-03T16:58:21.510Z,68.88
2022-12-03T17:00:49.609Z,68.81
2022-12-03T17:03:20.074Z,68.77
2022-12-03T17:05:47.675Z,68.88
2022-12-03T17:08:16.531Z,68.99
2022-12-03T17:10:44.547Z,69.11
2022-12-03T17:13:12.481Z,68.97
2022-12-03T17:15:40.576Z,68.98
2022-12-03T17:18:08.557Z,69.07
2022-12-03T17:20:37.200Z,69.09
2022-12-03T17:23:04.713Z,69.00
2022-12-03T17:25:32.757Z,68.88
2022-12-03T17:28:01.203Z,68.94
2022-12-03T17:30:28.687Z,69.18
2022-12-03T17:32:56.483Z,69.11
2022-12-03T17:35:25.046Z,69.22
2022-12-03T17:37:52.572Z,69.07
2022-12-03T17:40:20.130Z,69.26
2022-12-03T17:42:47.627Z,69.25
2022-12-03T17:45:15.170Z,69.32
2022-12-03T17:47:42.650Z,69.25
2022-12-03T17:50:10.507Z,69.29
2022-12-03T17:52:37.988Z,69.35
2022-12-03T17:55:12.791Z,69.23
2022-12-03T17:57:42.108Z,69.35
2022-12-03T18:00:10.117Z,69.49
2022-12-03T18:02:37.656Z,69.47
2022-12-03T18:05:05.450Z,69.51
2022-12-03T18:07:33.035Z,69.61
2022-12-03T18:10:00.803Z,69.54
2022-12-03T18:12:28.306Z,69.58
2022-12-03T18:14:55.771Z,69.57
2022-12-03T18:17:23.263Z,69.52
2022-12-03T18:19:50.853Z,69.49
2022-12-03T18:22:19.120Z,69.57
2022-12-03T18:24:51.491Z,69.59
2022-12-03T18:27:23.829Z,69.67
2022-12-03T18:29:51.781Z,69.60
2022-12-03T18:32:29.388Z,69.70
2022-12-03T18:34:58.026Z,69.70
2022-12-03T18:37:27.875Z,69.77
2022-12-03T18:39:57.573Z,69.77
2022-12-03T18:42:25.842Z,69.73
2022-12-03T18:44:55.250Z,69.80
2022-12-03T18:47:26.609Z,69.78
2022-12-03T18:49:56.365Z,69.79
2022-12-03T18:52:25.193Z,69.67
2022-12-03T18:54:53.194Z,69.80
2022-12-03T18:57:20.705Z,69.82
2022-12-03T18:59:48.231Z,69.82
2022-12-03T19:02:53.704Z,69.99
2022-12-03T19:05:05.687Z,70.07
2022-12-03T19:07:33.463Z,70.03
2022-12-03T19:10:01.088Z,70.00
2022-12-03T19:12:28.675Z,69.98
2022-12-03T19:14:56.425Z,69.96
2022-12-03T19:17:24.224Z,70.04
2022-12-03T19:19:51.907Z,69.82
2022-12-03T19:22:19.692Z,69.86
2022-12-03T19:24:47.175Z,69.93
2022-12-03T19:27:15.039Z,69.91
2022-12-03T19:29:42.511Z,69.96
2022-12-03T19:32:10.043Z,70.12
2022-12-03T19:34:38.089Z,70.15
2022-12-03T19:37:05.572Z,70.14
2022-12-03T19:39:33.171Z,70.12
2022-12-03T19:42:00.714Z,70.21
2022-12-03T19:44:28.196Z,70.17
2022-12-03T19:46:57.170Z,70.03
2022-12-03T19:49:25.532Z,70.14
2022-12-03T19:51:53.083Z,70.10
2022-12-03T19:54:20.598Z,70.21
2022-12-03T19:56:48.125Z,70.14
2022-12-03T19:59:15.649Z,70.18
2022-12-03T20:01:43.683Z,70.26
2022-12-03T20:04:12.363Z,70.23
2022-12-03T20:06:40.256Z,70.33
2022-12-03T20:09:11.954Z,70.30
2022-12-03T20:11:41.194Z,70.30
2022-12-03T20:14:12.266Z,70.22
2022-12-03T20:16:40.000Z,70.28
2022-12-03T20:19:10.064Z,70.32
2022-12-03T20:21:38.817Z,70.43
2022-12-03T20:24:08.449Z,70.54
2022-12-03T20:26:35.966Z,70.43
2022-12-03T20:29:03.650Z,70.40
2022-12-03T20:31:32.303Z,70.50
2022-12-03T20:34:03.317Z,70.66
2022-12-03T20:36:32.298Z,70.52
2022-12-03T20:39:02.762Z,70.46
2022-12-03T20:41:30.343Z,70.55
2022-12-03T20:43:57.961Z,70.49
2022-12-03T20:46:31.045Z,70.61
2022-12-03T20:48:59.029Z,70.68
2022-12-03T20:51:29.722Z,70.69
2022-12-03T20:53:58.566Z,70.69
2022-12-03T20:56:31.077Z,70.68
2022-12-03T20:59:04.923Z,70.44
2022-12-03T21:01:33.202Z,70.58
2022-12-03T21:04:00.853Z,70.76
2022-12-03T21:06:29.908Z,70.86
2022-12-03T21:08:59.026Z,70.83
2022-12-03T21:11:29.966Z,70.78
2022-12-03T21:13:58.911Z,70.83
2022-12-03T21:16:59.412Z,70.80
2022-12-03T21:19:18.530Z,70.92
2022-12-03T21:21:46.016Z,70.78
2022-12-03T21:24:13.868Z,70.74
2022-12-03T21:26:41.440Z,70.71
2022-12-03T21:29:09.586Z,70.79
2022-12-03T21:31:38.388Z,70.80
2022-12-03T21:34:06.007Z,70.81
2022-12-03T21:36:33.484Z,70.93
2022-12-03T21:39:01.079Z,70.93
2022-12-03T21:41:28.540Z,71.06
2022-12-03T21:43:56.073Z,71.02
2022-12-03T21:47:12.204Z,70.97
2022-12-03T21:49:10.988Z,71.15
2022-12-03T21:51:38.506Z,70.83
2022-12-03T21:54:05.980Z,70.92
2022-12-03T21:56:33.520Z,70.96
2022-12-03T21:59:01.053Z,70.96
2022-12-03T22:01:28.637Z,71.06
2022-12-03T22:03:56.295Z,71.01
2022-12-03T22:06:23.989Z,71.10
2022-12-03T22:08:51.706Z,71.00
2022-12-03T22:11:22.045Z,70.91
2022-12-03T22:13:49.854Z,71.04
2022-12-03T22:16:20.047Z,71.13
2022-12-03T22:18:48.366Z,71.18
2022-12-03T22:21:19.171Z,71.22
2022-12-03T22:23:46.707Z,71.26
2022-12-03T22:26:16.342Z,71.28
2022-12-03T22:28:45.855Z,71.35
2022-12-03T22:31:14.337Z,71.29
2022-12-03T22:33:43.330Z,71.14
2022-12-03T22:36:18.317Z,71.14
2022-12-03T22:38:47.843Z,71.15
2022-12-03T22:41:16.298Z,71.19
2022-12-03T22:43:45.123Z,71.20
2022-12-03T22:46:13.514Z,71.14
2022-12-03T22:48:43.095Z,71.30
2022-12-03T22:51:23.256Z,71.48
2022-12-03T22:53:55.604Z,71.32
2022-12-03T22:56:24.427Z,71.32
2022-12-03T22:58:51.980Z,71.23
2022-12-03T23:01:37.762Z,71.17
2022-12-03T23:04:06.598Z,71.26
2022-12-03T23:06:36.402Z,71.30
2022-12-03T23:09:06.114Z,71.28
2022-12-03T23:11:34.376Z,71.47
2022-12-03T23:14:02.334Z,71.64
2022-12-03T23:16:33.040Z,71.57
2022-12-03T23:19:02.790Z,71.56
2022-12-03T23:21:33.069Z,71.45
2022-12-03T23:24:02.590Z,71.43
2022-12-03T23:26:30.192Z,71.40
2022-12-03T23:28:57.666Z,71.32
2022-12-03T23:31:29.547Z,71.37
2022-12-03T23:33:58.663Z,71.52
2022-12-03T23:36:29.280Z,71.57
2022-12-03T23:38:56.907Z,71.50
2022-12-03T23:41:24.956Z,71.51
2022-12-03T23:43:53.077Z,71.69
2022-12-03T23:46:26.105Z,71.45
2022-12-03T23:48:54.393Z,71.69
2022-12-03T23:51:24.501Z,71.53
2022-12-03T23:53:54.176Z,71.64
2022-12-03T23:56:25.402Z,71.65
2022-12-03T23:58:52.959Z,71.72
